Moku Pahu — WBWK — position and weather

sailwx.info

Track history (hours):
 
Tides and Currents Weather Stations Pressure Air Temp Water Temp Dewpoint Dewpoint Depression Visibility Wind Speed Wind Dir Waves Ship Positions

Moku Pahu

Owner: American Ship Management, LLC., Concord, CA. More information available from US FCC via Universal Licensing System and Coast Guard Vessel Documentation Center.

Last reported at 2016-Jul-23 10:32 UTC. Time now 2016-Jul-23 11:12 UTC.
Position N 37°44' W 122°20'.

Type: Ship. MMSI: 366857000.

Date/timePositionNaut miles runAvg speedWind from/ knotsBaromVisibWave heightAir tempDewpointWater temp
2016-Jul-23 10:32N 37°44' W 122°20'0 0.2
2016-Jul-23 09:33N 37°44' W 122°20'0 0.1
2016-Jul-23 08:33N 37°44' W 122°20'0 0.0
2016-Jul-23 07:31N 37°44' W 122°20'0 0.0
2016-Jul-23 06:32N 37°44' W 122°20'0 0.1
2016-Jul-23 04:33N 37°44' W 122°20'0 0.2
2016-Jul-23 03:33N 37°44' W 122°20'0 0.0
2016-Jul-23 02:31N 37°44' W 122°20'0 0.0
2016-Jul-23 01:32N 37°44' W 122°20'0 0.0
2016-Jul-23 00:32N 37°44' W 122°20'0 0.1
2016-Jul-22 23:33N 37°44' W 122°20'0 0.1
2016-Jul-22 22:31N 37°44' W 122°20'0 0.1
2016-Jul-22 21:31N 37°44' W 122°20'0 0.0
2016-Jul-22 20:32N 37°44' W 122°20'0 0.0
2016-Jul-22 19:33N 37°44' W 122°20'0 0.0
2016-Jul-22 18:33N 37°44' W 122°20'0 0.0
2016-Jul-22 17:31N 37°44' W 122°20'0 0.2
2016-Jul-22 16:32N 37°44' W 122°20'0 0.1
2016-Jul-22 15:32N 37°44' W 122°20'0 0.0
2016-Jul-22 14:33N 37°44' W 122°20'0 0.0
2016-Jul-22 13:33N 37°44' W 122°20'0 0.0
2016-Jul-22 12:31N 37°44' W 122°20'0 0.0
2016-Jul-22 11:32N 37°44' W 122°20'0 0.0
2016-Jul-22 10:32N 37°44' W 122°20'0 0.1
2016-Jul-22 09:33N 37°44' W 122°20'0 0.2
2016-Jul-22 08:31N 37°44' W 122°20'0 0.0
2016-Jul-22 07:31N 37°44' W 122°20'0 0.0
2016-Jul-22 04:33N 37°44' W 122°20'0 0.2
2016-Jul-22 03:31N 37°44' W 122°20'0 0.1
2016-Jul-22 02:32N 37°44' W 122°20'0 0.0
2016-Jul-22 01:32N 37°44' W 122°20'0 0.0
2016-Jul-22 00:33N 37°44' W 122°20'0 0.1
2016-Jul-21 23:33N 37°44' W 122°20'7 7.5
2016-Jul-21 22:33N 37°49' W 122°28'1111.3
2016-Jul-21 21:33N 37°45' W 122°41'9 9.0
2016-Jul-21 20:33N 37°39' W 122°50'9 9.0
2016-Jul-21 19:33N 37°34' W 122°59'8 7.9
2016-Jul-21 18:33N 37°31' W 123°08'1010.3
2016-Jul-21 17:33N 37°27' W 123°20'1311.7
2016-Jul-21 16:29N 37°21' W 123°34'1111.7
2016-Jul-21 15:34N 37°16' W 123°46'1211.8
2016-Jul-21 14:33N 37°10' W 123°59'1212.2
2016-Jul-21 13:33N 37°04' W 124°12'9 9.5
2016-Jul-21 12:33N 36°59' W 124°23'1211.8
2016-Jul-21 11:33N 36°53' W 124°35'1311.8
2016-Jul-21 10:28N 36°47' W 124°49'17812.4
2016-Jul-20 20:08N 35°23' W 128°04'  
Track history (hours):
 
Tides and Currents Weather Stations Pressure Air Temp Water Temp Dewpoint Dewpoint Depression Visibility Wind Speed Wind Dir Waves Ship Positions

Moku Pahu

Owner: American Ship Management, LLC., Concord, CA. More information available from US FCC via Universal Licensing System and Coast Guard Vessel Documentation Center.

Last reported at 2016-Jul-23 10:32 UTC. Time now 2016-Jul-23 11:12 UTC.
Position N 37°44' W 122°20'.

Type: Ship. MMSI: 366857000.

Date/timePositionNaut miles runAvg speedWind from/ knotsBaromVisibWave heightAir tempDewpointWater temp
2016-Jul-23 10:32N 37°44' W 122°20'0 0.2
2016-Jul-23 09:33N 37°44' W 122°20'0 0.1
2016-Jul-23 08:33N 37°44' W 122°20'0 0.0
2016-Jul-23 07:31N 37°44' W 122°20'0 0.0
2016-Jul-23 06:32N 37°44' W 122°20'0 0.1
2016-Jul-23 04:33N 37°44' W 122°20'0 0.2
2016-Jul-23 03:33N 37°44' W 122°20'0 0.0
2016-Jul-23 02:31N 37°44' W 122°20'0 0.0
2016-Jul-23 01:32N 37°44' W 122°20'0 0.0
2016-Jul-23 00:32N 37°44' W 122°20'0 0.1
2016-Jul-22 23:33N 37°44' W 122°20'0 0.1
2016-Jul-22 22:31N 37°44' W 122°20'0 0.1
2016-Jul-22 21:31N 37°44' W 122°20'0 0.0
2016-Jul-22 20:32N 37°44' W 122°20'0 0.0
2016-Jul-22 19:33N 37°44' W 122°20'0 0.0
2016-Jul-22 18:33N 37°44' W 122°20'0 0.0
2016-Jul-22 17:31N 37°44' W 122°20'0 0.2
2016-Jul-22 16:32N 37°44' W 122°20'0 0.1
2016-Jul-22 15:32N 37°44' W 122°20'0 0.0
2016-Jul-22 14:33N 37°44' W 122°20'0 0.0
2016-Jul-22 13:33N 37°44' W 122°20'0 0.0
2016-Jul-22 12:31N 37°44' W 122°20'0 0.0
2016-Jul-22 11:32N 37°44' W 122°20'0 0.0
2016-Jul-22 10:32N 37°44' W 122°20'0 0.1
2016-Jul-22 09:33N 37°44' W 122°20'0 0.2
2016-Jul-22 08:31N 37°44' W 122°20'0 0.0
2016-Jul-22 07:31N 37°44' W 122°20'0 0.0
2016-Jul-22 04:33N 37°44' W 122°20'0 0.2
2016-Jul-22 03:31N 37°44' W 122°20'0 0.1
2016-Jul-22 02:32N 37°44' W 122°20'0 0.0
2016-Jul-22 01:32N 37°44' W 122°20'0 0.0
2016-Jul-22 00:33N 37°44' W 122°20'0 0.1
2016-Jul-21 23:33N 37°44' W 122°20'7 7.5
2016-Jul-21 22:33N 37°49' W 122°28'1111.3
2016-Jul-21 21:33N 37°45' W 122°41'9 9.0
2016-Jul-21 20:33N 37°39' W 122°50'9 9.0
2016-Jul-21 19:33N 37°34' W 122°59'8 7.9
2016-Jul-21 18:33N 37°31' W 123°08'1010.3
2016-Jul-21 17:33N 37°27' W 123°20'1311.7
2016-Jul-21 16:29N 37°21' W 123°34'1111.7
2016-Jul-21 15:34N 37°16' W 123°46'1211.8
2016-Jul-21 14:33N 37°10' W 123°59'1212.2
2016-Jul-21 13:33N 37°04' W 124°12'9 9.5
2016-Jul-21 12:33N 36°59' W 124°23'1211.8
2016-Jul-21 11:33N 36°53' W 124°35'1311.8
2016-Jul-21 10:28N 36°47' W 124°49'17812.4
2016-Jul-20 20:08N 35°23' W 128°04'  

Dump ship's entire track history